Time;durP1;ratioP1;P1;durP2;ratioP2;P2;SDS_P1;SDS_P2;PMS_P1;PMS_P2;Temp;Humidity;BMP_temperature;BMP_pressure;BME280_temperature;BME280_humidity;BME280_pressure;Samples;Min_cycle;Max_cycle;Signal;HPM_P1;HPM_P2
2022/09/28 00:00:40;;;;;;;2.13;1.00;;;9.50;99.90;;;;;;4966602;28;20211;-78
2022/09/28 00:03:06;;;;;;;1.43;1.03;;;9.50;99.90;;;;;;4964694;28;20200;-78
2022/09/28 00:05:34;;;;;;;2.37;1.03;;;9.50;99.90;;;;;;4965297;28;20209;-81
2022/09/28 00:08:02;;;;;;;3.40;1.20;;;9.50;99.90;;;;;;4966034;28;20617;-81
2022/09/28 00:10:31;;;;;;;1.47;1.10;;;9.50;99.90;;;;;;4965467;28;20680;-81
2022/09/28 00:13:00;;;;;;;2.23;1.00;;;9.50;99.90;;;;;;4966625;28;20317;-79
2022/09/28 00:15:28;;;;;;;1.60;0.90;;;9.50;99.90;;;;;;4964690;28;20232;-78
2022/09/28 00:17:54;;;;;;;1.60;0.80;;;9.50;99.90;;;;;;4965150;28;20563;-78
2022/09/28 00:20:21;;;;;;;2.50;0.90;;;9.50;99.90;;;;;;4964500;28;20617;-78
2022/09/28 00:22:48;;;;;;;1.30;0.70;;;9.50;99.90;;;;;;4964036;28;20291;-77
2022/09/28 00:25:17;;;;;;;1.50;0.73;;;9.50;99.90;;;;;;4964292;28;20203;-79
2022/09/28 00:27:49;;;;;;;1.93;0.70;;;9.40;99.90;;;;;;4965016;28;20340;-78
2022/09/28 00:30:16;;;;;;;2.50;1.67;;;9.40;99.90;;;;;;4963519;28;20228;-77
2022/09/28 00:32:43;;;;;;;2.63;0.70;;;9.40;99.90;;;;;;4965225;28;20208;-78
2022/09/28 00:35:10;;;;;;;1.57;0.80;;;9.40;99.90;;;;;;4963617;28;20220;-79
2022/09/28 00:37:38;;;;;;;2.07;0.80;;;9.40;99.90;;;;;;4964638;28;20200;-78
2022/09/28 00:40:06;;;;;;;0.97;0.60;;;9.30;99.90;;;;;;4964140;28;20240;-79
2022/09/28 00:42:34;;;;;;;1.10;0.77;;;9.30;99.90;;;;;;4964927;28;20219;-78
2022/09/28 00:45:01;;;;;;;0.73;0.70;;;9.30;99.90;;;;;;4978236;28;20210;-79
2022/09/28 00:47:49;;;;;;;2.30;0.70;;;9.20;99.90;;;;;;4991365;23;20641;-77
2022/09/28 00:50:22;;;;;;;1.53;0.80;;;9.20;99.90;;;;;;4984211;28;20223;-78
2022/09/28 00:52:53;;;;;;;1.57;0.70;;;9.10;99.90;;;;;;4975550;28;20204;-78
2022/09/28 00:55:27;;;;;;;1.00;0.80;;;9.00;99.90;;;;;;4964547;28;20561;-78
2022/09/28 00:58:00;;;;;;;1.13;0.60;;;9.00;99.90;;;;;;4964282;28;20229;-78
2022/09/28 01:00:27;;;;;;;1.80;0.97;;;9.00;99.90;;;;;;4964196;28;20311;-78
2022/09/28 01:02:55;;;;;;;0.70;0.70;;;8.90;99.90;;;;;;4964822;28;20299;-78
2022/09/28 01:05:23;;;;;;;1.90;0.83;;;8.90;99.90;;;;;;4963943;28;20212;-80
2022/09/28 01:07:51;;;;;;;1.33;0.63;;;8.90;99.90;;;;;;4964201;28;20489;-76
2022/09/28 01:10:18;;;;;;;2.03;1.00;;;8.90;99.90;;;;;;4963924;28;20215;-78
2022/09/28 01:12:45;;;;;;;0.63;0.63;;;8.90;99.90;;;;;;4964504;28;20224;-78
2022/09/28 01:15:14;;;;;;;2.03;1.33;;;9.00;99.90;;;;;;4964064;28;20204;-78
2022/09/28 01:17:57;;;;;;;1.30;1.00;;;9.00;99.90;;;;;;4963998;28;20259;-80
2022/09/28 01:20:33;;;;;;;1.33;0.80;;;9.00;99.90;;;;;;4963326;28;20783;-79
2022/09/28 01:23:30;;;;;;;2.87;1.40;;;8.90;99.90;;;;;;4964670;28;20200;-78
2022/09/28 01:26:18;;;;;;;1.30;0.80;;;8.90;99.90;;;;;;4964260;28;20231;-78
2022/09/28 01:28:47;;;;;;;1.33;0.80;;;8.90;99.90;;;;;;4964673;28;20207;-79
2022/09/28 01:31:15;;;;;;;0.83;0.83;;;8.90;99.90;;;;;;4963343;28;20201;-80
2022/09/28 01:33:45;;;;;;;1.10;0.90;;;8.80;99.90;;;;;;4962940;28;20205;-80
2022/09/28 01:36:18;;;;;;;2.97;1.20;;;8.90;99.90;;;;;;4963372;28;20299;-80
2022/09/28 01:38:48;;;;;;;2.07;1.23;;;8.80;99.90;;;;;;4964513;28;20205;-78
2022/09/28 01:41:18;;;;;;;2.17;1.00;;;8.80;99.90;;;;;;4963901;28;20224;-78
2022/09/28 01:43:51;;;;;;;1.83;1.00;;;8.80;99.90;;;;;;4964006;28;20217;-78
2022/09/28 01:46:22;;;;;;;1.33;0.80;;;8.80;99.90;;;;;;4964517;28;20296;-79
2022/09/28 01:48:54;;;;;;;0.80;0.77;;;8.80;99.90;;;;;;4967774;28;20209;-79
2022/09/28 01:51:29;;;;;;;1.83;0.83;;;8.80;99.90;;;;;;4966500;28;20197;-78
2022/09/28 01:54:00;;;;;;;0.70;0.70;;;8.80;99.90;;;;;;4986948;28;20694;-78
2022/09/28 01:56:35;;;;;;;1.43;1.10;;;8.70;99.90;;;;;;4986225;28;20485;-78
2022/09/28 01:59:06;;;;;;;1.50;1.07;;;8.70;99.90;;;;;;4986981;28;20227;-78
2022/09/28 02:01:39;;;;;;;1.90;1.00;;;8.70;99.90;;;;;;4980616;28;20215;-78
2022/09/28 02:04:11;;;;;;;2.30;0.90;;;8.70;99.90;;;;;;4967277;28;20201;-79
2022/09/28 02:06:45;;;;;;;1.50;1.00;;;8.70;99.90;;;;;;4967551;28;20212;-78
2022/09/28 02:09:18;;;;;;;1.33;1.20;;;8.70;99.90;;;;;;4966611;28;20200;-78
2022/09/28 02:11:52;;;;;;;0.90;0.80;;;8.80;99.90;;;;;;4967225;28;20814;-78
2022/09/28 02:14:20;;;;;;;0.90;0.90;;;8.80;99.90;;;;;;4966784;28;20205;-78
2022/09/28 02:16:50;;;;;;;1.00;0.60;;;8.80;99.90;;;;;;4966828;28;20209;-79
2022/09/28 02:19:19;;;;;;;0.90;0.70;;;8.80;99.90;;;;;;4967207;28;20216;-78
2022/09/28 02:21:54;;;;;;;0.60;0.60;;;8.80;99.90;;;;;;4967218;28;20212;-79
2022/09/28 02:24:26;;;;;;;0.70;0.70;;;8.80;99.90;;;;;;4966045;28;20212;-79
2022/09/28 02:26:59;;;;;;;0.53;0.50;;;8.80;99.90;;;;;;4967004;28;20207;-79
2022/09/28 02:29:26;;;;;;;1.47;0.70;;;8.80;99.90;;;;;;4966504;28;20642;-79
2022/09/28 02:31:53;;;;;;;0.97;0.50;;;8.80;99.90;;;;;;4967562;28;20223;-78
2022/09/28 02:34:20;;;;;;;0.77;0.60;;;8.80;99.90;;;;;;4966849;28;20203;-78
2022/09/28 02:36:47;;;;;;;1.00;0.60;;;8.90;99.90;;;;;;4965687;28;20923;-78
2022/09/28 02:39:15;;;;;;;0.73;0.60;;;8.80;99.90;;;;;;4966301;28;20228;-79
2022/09/28 02:41:54;;;;;;;0.80;0.50;;;8.80;99.90;;;;;;4966837;28;20209;-78
2022/09/28 02:44:49;;;;;;;0.67;0.50;;;8.90;99.90;;;;;;4965503;28;20204;-78
2022/09/28 02:47:27;;;;;;;0.50;0.50;;;8.90;99.90;;;;;;4966041;28;20252;-78
2022/09/28 02:50:04;;;;;;;0.53;0.50;;;8.90;99.90;;;;;;4966692;28;20201;-78
2022/09/28 02:52:48;;;;;;;0.80;0.40;;;8.90;99.90;;;;;;4965716;28;20298;-78
2022/09/28 02:55:24;;;;;;;1.10;0.50;;;8.80;99.90;;;;;;4966518;28;20201;-78
2022/09/28 02:58:14;;;;;;;0.43;0.43;;;8.80;99.90;;;;;;4965888;28;20579;-78
2022/09/28 03:00:49;;;;;;;0.60;0.57;;;8.80;99.90;;;;;;4966270;28;20228;-78
2022/09/28 03:03:24;;;;;;;2.30;1.00;;;8.80;99.90;;;;;;4966353;28;20617;-78
2022/09/28 03:05:59;;;;;;;0.50;0.50;;;8.80;99.90;;;;;;4965848;28;20204;-78
2022/09/28 03:08:32;;;;;;;1.27;0.80;;;8.90;99.90;;;;;;4966524;28;20220;-78
2022/09/28 03:11:03;;;;;;;1.23;0.80;;;8.80;99.90;;;;;;4966071;28;20193;-78
2022/09/28 03:13:31;;;;;;;1.13;0.73;;;8.90;99.90;;;;;;4964883;28;20200;-78
2022/09/28 03:16:14;;;;;;;0.63;0.60;;;8.90;99.90;;;;;;4965998;28;20212;-78
2022/09/28 03:18:41;;;;;;;1.97;0.80;;;8.90;99.90;;;;;;4965651;28;20868;-78
2022/09/28 03:21:09;;;;;;;1.10;0.77;;;8.90;99.90;;;;;;4966501;28;20231;-80
2022/09/28 03:23:36;;;;;;;4.07;1.30;;;9.00;99.90;;;;;;4966111;28;20216;-80
2022/09/28 03:26:02;;;;;;;1.63;0.93;;;9.00;99.90;;;;;;4965523;28;20208;-79
2022/09/28 03:28:29;;;;;;;1.13;0.90;;;9.00;99.90;;;;;;4966051;28;20211;-79
2022/09/28 03:30:57;;;;;;;1.87;0.80;;;9.10;99.90;;;;;;4965878;28;20212;-78
2022/09/28 03:33:25;;;;;;;1.63;0.70;;;9.10;99.90;;;;;;4965283;28;20204;-78
2022/09/28 03:35:52;;;;;;;2.33;0.90;;;9.10;99.90;;;;;;4965784;28;20209;-78
2022/09/28 03:38:20;;;;;;;2.97;1.20;;;9.10;99.90;;;;;;4966761;28;20532;-82
2022/09/28 03:40:53;;;;;;;1.10;0.80;;;9.10;99.90;;;;;;4965591;28;20323;-78
2022/09/28 03:43:20;;;;;;;2.43;0.60;;;9.10;99.90;;;;;;4965295;28;20212;-78
2022/09/28 03:45:52;;;;;;;0.50;0.50;;;9.10;99.90;;;;;;4966005;28;20215;-79
2022/09/28 03:48:22;;;;;;;1.57;0.70;;;9.00;99.90;;;;;;4966012;28;20244;-81
2022/09/28 03:50:53;;;;;;;0.60;0.60;;;9.00;99.90;;;;;;4967621;28;20204;-81
2022/09/28 03:53:20;;;;;;;0.93;0.60;;;9.00;99.90;;;;;;4966492;28;20208;-80
2022/09/28 03:55:47;;;;;;;0.60;0.50;;;9.00;99.90;;;;;;4965066;28;20593;-78
2022/09/28 03:58:13;;;;;;;1.23;0.80;;;9.00;99.90;;;;;;4965422;28;20235;-78
2022/09/28 04:00:40;;;;;;;1.47;0.90;;;9.00;99.90;;;;;;4965794;28;20231;-78
2022/09/28 04:03:08;;;;;;;1.50;0.57;;;9.00;99.90;;;;;;4964734;28;20511;-78
2022/09/28 04:05:35;;;;;;;0.97;0.60;;;8.90;99.90;;;;;;4965503;28;20216;-78
2022/09/28 04:08:03;;;;;;;0.63;0.50;;;8.90;99.90;;;;;;4965254;28;20211;-79
2022/09/28 04:10:30;;;;;;;1.53;0.70;;;8.90;99.90;;;;;;4964562;28;20593;-79
2022/09/28 04:12:58;;;;;;;1.10;0.63;;;8.90;99.90;;;;;;4964597;28;20612;-78
2022/09/28 04:15:25;;;;;;;1.60;0.70;;;8.90;99.90;;;;;;4964198;28;20208;-77
2022/09/28 04:17:52;;;;;;;1.30;0.60;;;8.90;99.90;;;;;;4965341;28;20255;-78
2022/09/28 04:20:19;;;;;;;0.77;0.60;;;8.90;99.90;;;;;;4964139;28;20216;-79
2022/09/28 04:22:46;;;;;;;1.10;0.63;;;9.00;99.90;;;;;;4964795;28;20516;-78
2022/09/28 04:25:15;;;;;;;0.70;0.60;;;8.90;99.90;;;;;;4965003;28;20924;-78
2022/09/28 04:30:26;;;;;;;1.77;0.87;;;8.90;99.90;;;;;;4964519;28;20184;-78
2022/09/28 04:32:53;;;;;;;0.77;0.70;;;8.90;99.90;;;;;;4964270;28;20712;-78
2022/09/28 04:35:20;;;;;;;0.60;0.60;;;8.90;99.90;;;;;;4964665;28;20216;-78
2022/09/28 04:37:46;;;;;;;0.90;0.70;;;8.80;99.90;;;;;;4964071;28;20512;-78
2022/09/28 04:40:15;;;;;;;1.27;0.80;;;8.80;99.90;;;;;;4983560;28;20231;-78
2022/09/28 04:42:42;;;;;;;0.70;0.70;;;8.70;99.90;;;;;;4984393;28;20206;-78
2022/09/28 04:45:10;;;;;;;1.70;0.90;;;8.70;99.90;;;;;;4982348;28;20200;-79
2022/09/28 04:47:37;;;;;;;1.40;0.70;;;8.70;99.90;;;;;;4965336;28;20247;-78
2022/09/28 04:50:04;;;;;;;1.00;0.80;;;8.70;99.90;;;;;;4963872;28;20204;-80
2022/09/28 04:52:31;;;;;;;1.83;0.80;;;8.80;99.90;;;;;;4965358;28;20292;-81
2022/09/28 04:54:57;;;;;;;0.93;0.63;;;8.80;99.90;;;;;;4965619;28;20416;-81
2022/09/28 04:57:28;;;;;;;1.67;0.90;;;8.80;99.90;;;;;;4965038;28;20258;-80
2022/09/28 04:59:55;;;;;;;1.43;0.90;;;8.80;99.90;;;;;;4965897;28;20230;-81
2022/09/28 05:02:23;;;;;;;2.33;1.30;;;8.80;99.90;;;;;;4965434;28;20683;-81
2022/09/28 05:04:50;;;;;;;2.10;1.40;;;8.70;99.90;;;;;;4965448;28;20212;-81
2022/09/28 05:07:16;;;;;;;1.67;1.23;;;8.70;99.90;;;;;;4965327;28;20197;-81
2022/09/28 05:09:44;;;;;;;2.23;1.43;;;8.70;99.90;;;;;;4965460;28;20228;-81
2022/09/28 05:12:11;;;;;;;1.20;1.00;;;8.70;99.90;;;;;;4964250;28;20201;-81
2022/09/28 05:14:40;;;;;;;1.53;1.10;;;8.60;99.90;;;;;;4964278;28;20200;-78
2022/09/28 05:17:08;;;;;;;1.87;1.30;;;8.70;99.90;;;;;;4964352;28;20217;-77
2022/09/28 05:19:34;;;;;;;2.13;1.43;;;8.70;99.90;;;;;;4964311;28;20207;-79
2022/09/28 05:22:03;;;;;;;1.97;0.80;;;8.60;99.90;;;;;;4965990;28;20233;-79
2022/09/28 05:24:30;;;;;;;2.37;1.10;;;8.60;99.90;;;;;;4968039;28;20239;-78
2022/09/28 05:26:57;;;;;;;1.10;1.00;;;8.60;99.90;;;;;;4967661;28;20671;-78
2022/09/28 05:29:24;;;;;;;1.03;0.90;;;8.60;99.90;;;;;;4972873;28;20210;-80
2022/09/28 05:31:52;;;;;;;1.03;0.93;;;8.60;99.90;;;;;;4987085;28;20638;-78
2022/09/28 05:34:19;;;;;;;1.00;1.00;;;8.60;99.90;;;;;;4981280;28;20299;-79
2022/09/28 05:36:46;;;;;;;2.13;1.93;;;8.60;99.90;;;;;;4968399;28;20215;-78
2022/09/28 05:39:13;;;;;;;1.03;1.03;;;8.60;99.90;;;;;;4967811;28;20208;-79
2022/09/28 05:41:40;;;;;;;1.53;1.43;;;8.50;99.90;;;;;;4967416;28;20310;-78
2022/09/28 05:44:07;;;;;;;1.90;1.53;;;8.50;99.90;;;;;;4967298;28;20624;-78
2022/09/28 05:46:33;;;;;;;1.60;1.50;;;8.50;99.90;;;;;;4966933;28;20663;-79
2022/09/28 05:49:02;;;;;;;1.67;1.57;;;8.50;99.90;;;;;;4967078;28;20831;-79
2022/09/28 05:51:29;;;;;;;1.93;1.73;;;8.40;99.90;;;;;;4966721;28;20209;-78
2022/09/28 05:53:56;;;;;;;2.03;1.83;;;8.40;99.90;;;;;;4967297;28;20224;-77
2022/09/28 05:56:23;;;;;;;2.70;2.20;;;8.40;99.90;;;;;;4966889;28;20765;-78
2022/09/28 05:58:50;;;;;;;2.43;2.23;;;8.40;99.90;;;;;;4967558;28;20311;-77
2022/09/28 06:01:17;;;;;;;2.40;2.20;;;8.40;99.90;;;;;;4966325;28;20943;-77
2022/09/28 06:03:44;;;;;;;2.53;2.33;;;8.40;99.90;;;;;;4986237;28;20212;-78
2022/09/28 06:06:12;;;;;;;2.97;2.37;;;8.40;99.90;;;;;;4986988;28;20199;-78
2022/09/28 06:08:41;;;;;;;6.90;2.70;;;8.40;99.90;;;;;;4968472;28;20649;-78
2022/09/28 06:11:11;;;;;;;2.53;2.23;;;8.40;99.90;;;;;;4966883;28;20204;-79
2022/09/28 06:13:38;;;;;;;2.97;2.27;;;8.40;99.90;;;;;;4967093;28;20201;-77
2022/09/28 06:16:06;;;;;;;3.00;2.30;;;8.50;99.90;;;;;;4966669;28;20239;-78
2022/09/28 06:18:33;;;;;;;4.47;3.03;;;8.50;99.90;;;;;;4967338;28;20204;-78
2022/09/28 06:21:01;;;;;;;2.43;2.20;;;8.50;99.90;;;;;;4967631;28;20339;-79
2022/09/28 06:23:29;;;;;;;3.73;2.23;;;8.50;99.90;;;;;;4965978;28;20215;-78
2022/09/28 06:25:58;;;;;;;3.30;2.30;;;8.60;99.90;;;;;;4966621;28;20205;-78
2022/09/28 06:28:26;;;;;;;2.37;2.00;;;8.60;99.90;;;;;;4967184;28;20394;-78
2022/09/28 06:30:53;;;;;;;2.33;2.13;;;8.60;99.90;;;;;;4966576;28;20200;-79
2022/09/28 06:33:20;;;;;;;1.87;1.67;;;8.60;99.90;;;;;;4965999;28;20286;-80
2022/09/28 06:35:48;;;;;;;3.03;1.70;;;8.50;99.90;;;;;;4966503;28;20213;-79
2022/09/28 06:38:14;;;;;;;2.40;2.17;;;8.50;99.90;;;;;;4966743;28;20266;-77
2022/09/28 06:40:43;;;;;;;3.40;2.07;;;8.50;99.90;;;;;;4983772;28;20224;-77
2022/09/28 06:43:13;;;;;;;2.57;2.00;;;8.60;99.90;;;;;;4985480;28;20210;-81
2022/09/28 06:45:41;;;;;;;1.77;1.67;;;8.60;99.90;;;;;;4978091;28;20221;-79
2022/09/28 06:48:10;;;;;;;2.17;1.80;;;8.60;99.90;;;;;;4985612;28;20552;-77
2022/09/28 06:50:40;;;;;;;2.03;1.80;;;8.60;99.90;;;;;;4985736;28;20248;-78
2022/09/28 06:53:09;;;;;;;2.10;1.90;;;8.60;99.90;;;;;;4969379;28;20822;-80
2022/09/28 06:55:39;;;;;;;1.93;1.50;;;8.60;99.90;;;;;;4927938;28;20205;-75
2022/09/28 06:58:10;;;;;;;2.10;1.80;;;8.70;99.90;;;;;;4966466;28;20281;-80
2022/09/28 07:00:38;;;;;;;2.80;1.50;;;8.70;99.90;;;;;;4967052;28;20213;-77
2022/09/28 07:03:07;;;;;;;2.30;1.50;;;8.70;99.90;;;;;;4967635;28;20204;-76
2022/09/28 07:05:36;;;;;;;1.27;1.17;;;8.70;99.90;;;;;;4966279;28;20204;-76
2022/09/28 07:08:04;;;;;;;1.80;1.50;;;8.80;99.90;;;;;;4967000;28;20212;-75
2022/09/28 07:10:32;;;;;;;1.23;1.10;;;8.80;99.90;;;;;;4960911;28;20209;-76
2022/09/28 07:13:02;;;;;;;1.93;1.60;;;8.80;99.90;;;;;;4966771;28;20221;-75
2022/09/28 07:15:31;;;;;;;1.97;1.77;;;8.90;99.90;;;;;;4966970;28;20255;-76
2022/09/28 07:17:58;;;;;;;1.67;1.50;;;8.90;99.90;;;;;;4966648;28;20351;-75
2022/09/28 07:20:25;;;;;;;2.57;1.30;;;8.90;99.90;;;;;;4966280;28;20205;-77
2022/09/28 07:22:53;;;;;;;1.47;1.23;;;9.00;99.90;;;;;;4982116;28;20219;-74
2022/09/28 07:25:20;;;;;;;1.83;1.20;;;8.90;99.90;;;;;;4984842;28;20266;-75
2022/09/28 07:27:47;;;;;;;2.00;1.20;;;9.00;99.90;;;;;;4985540;28;20204;-75
2022/09/28 07:30:15;;;;;;;1.77;1.10;;;9.00;99.90;;;;;;4984723;28;20271;-75
2022/09/28 07:32:45;;;;;;;1.63;1.00;;;9.10;99.90;;;;;;4984921;28;20693;-74
2022/09/28 07:35:12;;;;;;;0.80;0.80;;;9.10;99.90;;;;;;4985803;28;20200;-75
2022/09/28 07:37:39;;;;;;;1.53;1.30;;;9.20;99.90;;;;;;4985317;28;20204;-75
2022/09/28 07:42:52;;;;;;;0.70;0.70;;;9.30;99.90;;;;;;4966441;28;20192;-75
2022/09/28 07:45:22;;;;;;;1.50;1.00;;;9.40;99.90;;;;;;4966948;28;20589;-80
2022/09/28 07:47:50;;;;;;;1.97;1.23;;;9.40;99.90;;;;;;4984703;28;20239;-76
2022/09/28 07:50:17;;;;;;;1.13;0.63;;;9.50;99.90;;;;;;4982340;28;20863;-76
2022/09/28 07:52:44;;;;;;;1.13;0.80;;;9.60;99.90;;;;;;4984808;28;20251;-76
2022/09/28 07:55:11;;;;;;;1.40;0.60;;;9.60;99.90;;;;;;4977782;28;20216;-75
2022/09/28 07:57:38;;;;;;;2.47;0.60;;;9.70;99.90;;;;;;4984958;28;20806;-75
2022/09/28 08:00:07;;;;;;;1.43;0.50;;;9.80;99.90;;;;;;4979914;28;20963;-76
2022/09/28 08:02:34;;;;;;;0.60;0.60;;;9.80;99.90;;;;;;4984584;28;20502;-78
2022/09/28 08:05:05;;;;;;;0.70;0.50;;;9.90;99.90;;;;;;4978905;28;20208;-77
2022/09/28 08:07:33;;;;;;;1.77;0.57;;;9.90;99.90;;;;;;4980391;28;20196;-78
2022/09/28 08:10:00;;;;;;;0.87;0.40;;;9.90;99.90;;;;;;4984731;28;20212;-79
2022/09/28 08:12:26;;;;;;;1.03;0.60;;;9.90;99.90;;;;;;4984499;28;20339;-79
2022/09/28 08:14:54;;;;;;;0.97;0.70;;;9.90;99.90;;;;;;4967233;28;20209;-78
2022/09/28 08:17:21;;;;;;;0.80;0.50;;;10.00;99.90;;;;;;4963639;28;20208;-78
2022/09/28 08:22:33;;;;;;;1.77;0.60;;;10.20;99.90;;;;;;4983133;28;20874;-77
2022/09/28 08:25:00;;;;;;;1.23;0.40;;;10.20;99.90;;;;;;4981260;28;20541;-78
2022/09/28 08:27:27;;;;;;;1.83;0.60;;;10.30;99.90;;;;;;4982071;28;20513;-77
2022/09/28 08:29:54;;;;;;;0.43;0.40;;;10.40;99.90;;;;;;4983046;28;20196;-78
2022/09/28 08:32:21;;;;;;;1.37;0.50;;;10.40;99.90;;;;;;4981528;28;20211;-79
2022/09/28 08:34:48;;;;;;;0.90;0.50;;;10.50;99.90;;;;;;4983712;28;20211;-78
2022/09/28 08:37:15;;;;;;;1.23;0.50;;;10.60;99.90;;;;;;4980553;28;20280;-81
2022/09/28 08:39:43;;;;;;;2.10;0.60;;;10.80;99.90;;;;;;4983050;28;20208;-76
2022/09/28 08:42:34;;;;;;;2.90;0.77;;;10.90;99.90;;;;;;4982596;28;20594;-77
2022/09/28 08:45:08;;;;;;;3.10;0.63;;;11.00;99.90;;;;;;4968731;28;20223;-78
2022/09/28 08:50:32;;;;;;;2.07;0.83;;;11.20;99.90;;;;;;4962928;28;20270;-77
2022/09/28 08:53:05;;;;;;;0.93;0.50;;;11.40;99.90;;;;;;4964187;28;20204;-77
2022/09/28 08:55:37;;;;;;;1.23;0.70;;;11.60;99.90;;;;;;4963935;28;20209;-77
2022/09/28 08:58:10;;;;;;;2.60;0.70;;;11.80;99.90;;;;;;4965967;28;20227;-77
2022/09/28 09:00:42;;;;;;;3.27;0.70;;;11.90;99.90;;;;;;4983417;28;20203;-77
2022/09/28 09:03:12;;;;;;;2.20;0.70;;;12.00;99.90;;;;;;4983906;28;20220;-77
2022/09/28 09:05:51;;;;;;;1.90;0.60;;;12.00;99.90;;;;;;4964217;28;20208;-77
2022/09/28 09:08:33;;;;;;;1.00;0.80;;;12.00;99.90;;;;;;4963885;28;20201;-79
2022/09/28 09:11:14;;;;;;;1.20;0.40;;;11.90;99.90;;;;;;4963917;28;20201;-77
2022/09/28 09:14:02;;;;;;;1.43;0.50;;;11.90;99.90;;;;;;4963942;28;20287;-77
2022/09/28 09:16:36;;;;;;;0.63;0.40;;;11.90;99.90;;;;;;4964077;28;20223;-78
2022/09/28 09:19:14;;;;;;;4.00;0.60;;;11.90;99.90;;;;;;4964062;28;20312;-77
2022/09/28 09:21:45;;;;;;;1.37;0.47;;;12.00;99.90;;;;;;4964785;28;20223;-77
2022/09/28 09:24:32;;;;;;;1.30;0.50;;;12.10;99.90;;;;;;4964322;28;20653;-78
2022/09/28 09:27:12;;;;;;;1.83;0.50;;;12.20;99.90;;;;;;4965117;28;20212;-77
2022/09/28 09:29:54;;;;;;;0.67;0.40;;;12.40;99.90;;;;;;4964607;28;20199;-78
2022/09/28 09:32:36;;;;;;;0.50;0.40;;;12.50;99.90;;;;;;4963959;28;20200;-79
2022/09/28 09:35:19;;;;;;;1.60;0.40;;;12.60;99.90;;;;;;4963434;28;20193;-79
2022/09/28 09:38:11;;;;;;;1.50;0.50;;;12.70;99.90;;;;;;4965136;28;20207;-78
2022/09/28 09:40:52;;;;;;;0.40;0.40;;;12.80;99.90;;;;;;4963697;28;20236;-79
2022/09/28 09:43:42;;;;;;;0.83;0.40;;;12.90;99.90;;;;;;4966201;28;20220;-82
2022/09/28 09:46:16;;;;;;;1.47;0.40;;;13.20;99.90;;;;;;4973753;28;20208;-79
2022/09/28 09:48:51;;;;;;;1.50;0.50;;;13.30;99.90;;;;;;4984846;28;20196;-76
2022/09/28 09:51:28;;;;;;;2.43;0.60;;;13.50;99.90;;;;;;4984229;28;20199;-76
2022/09/28 09:53:59;;;;;;;1.50;0.40;;;13.50;99.90;;;;;;4970174;28;20327;-77
2022/09/28 09:56:34;;;;;;;0.90;0.47;;;13.40;99.90;;;;;;4964423;28;20748;-77
2022/09/28 09:59:07;;;;;;;0.53;0.37;;;13.40;99.90;;;;;;4964161;28;20227;-76
2022/09/28 10:01:38;;;;;;;0.30;0.30;;;13.40;99.90;;;;;;4976630;28;20223;-78
2022/09/28 10:04:11;;;;;;;0.87;0.30;;;13.50;99.90;;;;;;4980968;28;20189;-78
2022/09/28 10:06:41;;;;;;;0.23;0.23;;;13.60;99.90;;;;;;4979003;28;20204;-78
2022/09/28 10:09:13;;;;;;;0.63;0.33;;;13.80;99.90;;;;;;4986963;28;20207;-78
2022/09/28 10:11:44;;;;;;;1.83;0.37;;;13.90;99.90;;;;;;4988758;28;20205;-78
2022/09/28 10:14:16;;;;;;;1.17;0.30;;;13.90;99.90;;;;;;4980008;28;20372;-79
2022/09/28 10:16:44;;;;;;;0.30;0.30;;;13.90;99.90;;;;;;4992983;28;20222;-78
2022/09/28 10:19:12;;;;;;;0.30;0.30;;;13.90;99.90;;;;;;4994730;28;20231;-79
2022/09/28 10:21:40;;;;;;;0.20;0.20;;;14.00;99.90;;;;;;4968663;28;20562;-79
2022/09/28 10:24:15;;;;;;;1.60;0.30;;;14.20;99.90;;;;;;4993814;28;20209;-78
2022/09/28 10:26:45;;;;;;;0.93;0.40;;;14.40;99.90;;;;;;4995837;28;20200;-79
2022/09/28 10:29:19;;;;;;;0.20;0.20;;;14.60;99.90;;;;;;4994508;28;20206;-78
2022/09/28 10:31:48;;;;;;;0.53;0.30;;;14.80;99.90;;;;;;4992868;28;20306;-80
2022/09/28 10:34:17;;;;;;;1.20;0.30;;;14.90;99.90;;;;;;4993882;28;20246;-79
2022/09/28 10:36:54;;;;;;;0.40;0.40;;;14.80;92.10;;;;;;4975653;28;20207;-78
2022/09/28 10:39:31;;;;;;;0.53;0.37;;;14.80;93.60;;;;;;4974762;28;20219;-79
2022/09/28 10:42:02;;;;;;;0.37;0.30;;;14.80;99.90;;;;;;4975193;28;20216;-78
2022/09/28 10:44:33;;;;;;;1.13;0.40;;;15.00;96.60;;;;;;4975611;28;20669;-78
2022/09/28 10:47:03;;;;;;;0.70;0.50;;;15.20;1.00;;;;;;4975319;28;20255;-79
2022/09/28 10:49:37;;;;;;;0.50;0.30;;;15.20;1.00;;;;;;4975270;28;20220;-78
2022/09/28 10:52:07;;;;;;;1.53;0.43;;;15.10;1.00;;;;;;4974637;28;20189;-79
2022/09/28 10:54:35;;;;;;;0.90;0.30;;;15.10;3.60;;;;;;4974986;28;20208;-79
2022/09/28 10:57:02;;;;;;;1.50;0.50;;;15.40;57.50;;;;;;4974611;28;20200;-78
2022/09/28 10:59:39;;;;;;;1.13;0.40;;;15.60;14.90;;;;;;4987578;28;20592;-79
2022/09/28 11:02:20;;;;;;;1.27;0.30;;;15.90;1.10;;;;;;4994913;28;20218;-79
2022/09/28 11:04:52;;;;;;;3.22;0.75;;;16.30;52.60;;;;;;4993994;28;20657;-79
2022/09/28 11:07:23;;;;;;;1.48;0.40;;;16.60;4.90;;;;;;4986622;28;20204;-79
2022/09/28 11:09:51;;;;;;;1.23;0.60;;;16.90;1.00;;;;;;4974848;28;20490;-79
2022/09/28 11:12:20;;;;;;;1.27;0.30;;;17.10;1.00;;;;;;4986826;28;20272;-79
2022/09/28 11:14:55;;;;;;;1.08;0.40;;;17.30;1.00;;;;;;4981060;28;20208;-79
2022/09/28 11:17:28;;;;;;;2.20;0.35;;;17.40;1.00;;;;;;4974221;28;20526;-79
2022/09/28 11:19:56;;;;;;;0.40;0.30;;;17.50;1.00;;;;;;4974467;28;20507;-80
2022/09/28 11:22:27;;;;;;;1.00;0.30;;;17.40;1.00;;;;;;4974733;28;20251;-79
2022/09/28 11:25:14;;;;;;;2.13;0.40;;;17.30;1.00;;;;;;4974309;28;20615;-80
2022/09/28 11:27:41;;;;;;;1.63;0.40;;;17.10;1.00;;;;;;4974963;28;20815;-79
2022/09/28 11:30:22;;;;;;;0.63;0.38;;;16.90;1.00;;;;;;4978029;28;20210;-79
2022/09/28 11:32:50;;;;;;;0.20;0.20;;;16.90;1.00;;;;;;4991261;28;20246;-80
2022/09/28 11:35:20;;;;;;;1.48;0.40;;;16.90;1.00;;;;;;4975150;28;20224;-81
2022/09/28 11:38:11;;;;;;;1.08;0.35;;;17.00;1.00;;;;;;4974887;28;20288;-81
2022/09/28 11:40:49;;;;;;;0.77;0.30;;;17.00;1.00;;;;;;4975808;28;20185;-82
2022/09/28 11:43:28;;;;;;;1.20;0.55;;;17.00;1.00;;;;;;4974803;28;20651;-81
2022/09/28 11:46:00;;;;;;;0.43;0.30;;;16.90;1.00;;;;;;4975752;28;20201;-81
2022/09/28 11:48:32;;;;;;;0.30;0.30;;;16.90;1.00;;;;;;4974204;28;20246;-79
2022/09/28 11:51:04;;;;;;;0.20;0.20;;;16.60;1.00;;;;;;4980198;28;20592;-81
2022/09/28 11:53:37;;;;;;;0.30;0.25;;;16.60;1.00;;;;;;4977167;28;20184;-81
2022/09/28 11:56:09;;;;;;;2.55;0.40;;;16.70;38.40;;;;;;4994008;28;20279;-81
2022/09/28 11:58:42;;;;;;;1.88;0.38;;;16.90;51.80;;;;;;4975503;28;20311;-81
2022/09/28 12:01:25;;;;;;;1.33;0.30;;;16.90;1.00;;;;;;4973833;28;20275;-80
2022/09/28 12:03:55;;;;;;;1.60;0.40;;;16.90;1.00;;;;;;4973788;28;20256;-81
2022/09/28 12:06:29;;;;;;;0.77;0.50;;;16.80;1.00;;;;;;4973354;28;20212;-77
2022/09/28 12:09:05;;;;;;;1.75;0.40;;;16.90;1.00;;;;;;4974146;28;20188;-76
2022/09/28 12:11:36;;;;;;;0.98;0.40;;;16.90;1.00;;;;;;4973448;28;20263;-78
2022/09/28 12:14:07;;;;;;;1.55;0.50;;;16.80;1.00;;;;;;4973318;28;20195;-77
2022/09/28 12:16:43;;;;;;;1.13;0.40;;;16.80;1.00;;;;;;4973743;28;20300;-77
2022/09/28 12:19:16;;;;;;;1.13;0.40;;;16.90;1.00;;;;;;4987109;28;20211;-76
2022/09/28 12:21:50;;;;;;;1.98;0.35;;;17.00;1.00;;;;;;4972896;28;20208;-76
2022/09/28 12:24:21;;;;;;;0.30;0.30;;;17.10;1.00;;;;;;4973577;28;20207;-78
2022/09/28 12:26:53;;;;;;;0.40;0.20;;;17.10;1.00;;;;;;4973491;28;20200;-76
2022/09/28 12:29:25;;;;;;;0.63;0.30;;;17.10;1.00;;;;;;4973198;28;20200;-76
2022/09/28 12:32:03;;;;;;;0.75;0.30;;;17.00;1.00;;;;;;4972872;28;20196;-76
2022/09/28 12:34:30;;;;;;;1.35;0.30;;;16.90;1.00;;;;;;4973078;28;20192;-77
2022/09/28 12:37:13;;;;;;;2.40;0.50;;;16.80;99.90;;;;;;4973320;28;20209;-78
2022/09/28 12:39:56;;;;;;;0.55;0.20;;;16.60;1.00;;;;;;4973293;28;20200;-76
2022/09/28 12:42:46;;;;;;;1.85;0.32;;;16.50;1.00;;;;;;4972779;28;20545;-76
2022/09/28 12:45:32;;;;;;;0.38;0.25;;;16.30;1.00;;;;;;4973500;28;20341;-77
2022/09/28 12:48:34;;;;;;;2.17;0.30;;;16.10;1.00;;;;;;4973256;28;20328;-76
2022/09/28 12:51:11;;;;;;;0.57;0.40;;;15.90;1.00;;;;;;4972880;28;20563;-78
2022/09/28 12:54:00;;;;;;;0.63;0.30;;;15.80;1.00;;;;;;4973732;28;20191;-78
2022/09/28 12:56:37;;;;;;;0.30;0.30;;;15.70;1.00;;;;;;4973106;28;20193;-77
2022/09/28 12:59:18;;;;;;;1.80;0.50;;;15.70;1.00;;;;;;4972930;28;20545;-76
2022/09/28 13:02:29;;;;;;;0.28;0.20;;;15.70;1.00;;;;;;4973495;28;20196;-76
2022/09/28 13:05:33;;;;;;;0.88;0.35;;;15.70;1.00;;;;;;4971885;28;20204;-77
2022/09/28 13:08:09;;;;;;;0.63;0.30;;;15.70;1.00;;;;;;4973069;28;20196;-77
2022/09/28 13:10:41;;;;;;;1.65;0.50;;;15.70;1.00;;;;;;4971854;28;20200;-77
2022/09/28 13:13:34;;;;;;;1.65;0.30;;;15.80;1.00;;;;;;4972164;28;20741;-77
2022/09/28 13:16:06;;;;;;;1.70;0.40;;;16.00;1.00;;;;;;4972756;28;20215;-77
2022/09/28 13:18:39;;;;;;;2.38;0.45;;;16.10;1.00;;;;;;4972191;28;20196;-79
2022/09/28 13:21:18;;;;;;;0.70;0.30;;;16.10;1.00;;;;;;4987669;28;20204;-79
2022/09/28 13:23:47;;;;;;;0.25;0.20;;;16.00;1.00;;;;;;4972652;28;20220;-78
2022/09/28 13:26:25;;;;;;;2.15;0.28;;;16.00;1.00;;;;;;4972957;28;20208;-77
2022/09/28 13:28:57;;;;;;;1.05;0.22;;;16.10;1.00;;;;;;4977123;28;20739;-78